sensor_id;sensor_type;location;lat;lon;timestamp;P1;durP1;ratioP1;P2;durP2;ratioP2
20012;SDS011;10167;42.852;23.042;2023-12-22T00:00:09;6.75;;;2.80;;
20012;SDS011;10167;42.852;23.042;2023-12-22T00:02:39;2.65;;;2.42;;
20012;SDS011;10167;42.852;23.042;2023-12-22T00:05:10;1.63;;;1.52;;
20012;SDS011;10167;42.852;23.042;2023-12-22T00:07:40;2.25;;;2.05;;
20012;SDS011;10167;42.852;23.042;2023-12-22T00:10:11;4.07;;;1.98;;
20012;SDS011;10167;42.852;23.042;2023-12-22T00:12:42;2.75;;;2.33;;
20012;SDS011;10167;42.852;23.042;2023-12-22T00:15:13;10.50;;;1.42;;
20012;SDS011;10167;42.852;23.042;2023-12-22T00:17:43;2.53;;;1.52;;
20012;SDS011;10167;42.852;23.042;2023-12-22T00:20:13;1.08;;;1.05;;
20012;SDS011;10167;42.852;23.042;2023-12-22T00:22:43;1.98;;;1.08;;
20012;SDS011;10167;42.852;23.042;2023-12-22T00:25:13;0.55;;;0.55;;
20012;SDS011;10167;42.852;23.042;2023-12-22T00:27:45;1.23;;;1.23;;
20012;SDS011;10167;42.852;23.042;2023-12-22T00:30:15;1.75;;;1.27;;
20012;SDS011;10167;42.852;23.042;2023-12-22T00:32:44;2.10;;;1.90;;
20012;SDS011;10167;42.852;23.042;2023-12-22T00:35:14;1.63;;;1.20;;
20012;SDS011;10167;42.852;23.042;2023-12-22T00:37:43;9.07;;;2.38;;
20012;SDS011;10167;42.852;23.042;2023-12-22T00:40:14;1.52;;;1.42;;
20012;SDS011;10167;42.852;23.042;2023-12-22T00:42:45;0.63;;;0.63;;
20012;SDS011;10167;42.852;23.042;2023-12-22T00:45:15;1.02;;;1.00;;
20012;SDS011;10167;42.852;23.042;2023-12-22T00:47:45;1.65;;;1.55;;
20012;SDS011;10167;42.852;23.042;2023-12-22T00:50:17;1.80;;;1.58;;
20012;SDS011;10167;42.852;23.042;2023-12-22T00:52:46;1.13;;;0.90;;
20012;SDS011;10167;42.852;23.042;2023-12-22T00:55:16;4.50;;;2.15;;
20012;SDS011;10167;42.852;23.042;2023-12-22T00:57:48;1.50;;;1.40;;
20012;SDS011;10167;42.852;23.042;2023-12-22T01:00:18;4.35;;;1.63;;
20012;SDS011;10167;42.852;23.042;2023-12-22T01:02:48;1.35;;;1.25;;
20012;SDS011;10167;42.852;23.042;2023-12-22T01:05:17;1.38;;;1.25;;
20012;SDS011;10167;42.852;23.042;2023-12-22T01:07:48;2.13;;;1.98;;
20012;SDS011;10167;42.852;23.042;2023-12-22T01:10:18;1.00;;;1.00;;
20012;SDS011;10167;42.852;23.042;2023-12-22T01:12:50;1.30;;;1.20;;
20012;SDS011;10167;42.852;23.042;2023-12-22T01:15:20;2.17;;;1.95;;
20012;SDS011;10167;42.852;23.042;2023-12-22T01:17:50;0.80;;;0.80;;
20012;SDS011;10167;42.852;23.042;2023-12-22T01:20:21;1.45;;;0.63;;
20012;SDS011;10167;42.852;23.042;2023-12-22T01:22:51;0.40;;;0.40;;
20012;SDS011;10167;42.852;23.042;2023-12-22T01:25:20;0.80;;;0.80;;
20012;SDS011;10167;42.852;23.042;2023-12-22T01:27:53;8.75;;;1.90;;
20012;SDS011;10167;42.852;23.042;2023-12-22T01:30:22;1.17;;;0.55;;
20012;SDS011;10167;42.852;23.042;2023-12-22T01:32:52;2.03;;;0.88;;
20012;SDS011;10167;42.852;23.042;2023-12-22T01:35:22;0.77;;;0.77;;
20012;SDS011;10167;42.852;23.042;2023-12-22T01:37:52;1.15;;;0.93;;
20012;SDS011;10167;42.852;23.042;2023-12-22T01:40:21;0.60;;;0.60;;
20012;SDS011;10167;42.852;23.042;2023-12-22T01:42:54;0.63;;;0.63;;
20012;SDS011;10167;42.852;23.042;2023-12-22T01:45:23;0.65;;;0.65;;
20012;SDS011;10167;42.852;23.042;2023-12-22T01:47:52;0.43;;;0.43;;
20012;SDS011;10167;42.852;23.042;2023-12-22T01:50:22;0.45;;;0.45;;
20012;SDS011;10167;42.852;23.042;2023-12-22T01:52:53;1.27;;;1.17;;
20012;SDS011;10167;42.852;23.042;2023-12-22T01:55:24;0.88;;;0.82;;
20012;SDS011;10167;42.852;23.042;2023-12-22T01:57:55;1.30;;;1.13;;
20012;SDS011;10167;42.852;23.042;2023-12-22T02:00:25;0.90;;;0.47;;
20012;SDS011;10167;42.852;23.042;2023-12-22T02:02:56;0.93;;;0.55;;
20012;SDS011;10167;42.852;23.042;2023-12-22T02:05:26;0.43;;;0.40;;
20012;SDS011;10167;42.852;23.042;2023-12-22T02:07:57;0.30;;;0.30;;
20012;SDS011;10167;42.852;23.042;2023-12-22T02:10:27;2.10;;;1.15;;
20012;SDS011;10167;42.852;23.042;2023-12-22T02:12:59;2.10;;;1.95;;
20012;SDS011;10167;42.852;23.042;2023-12-22T02:15:28;1.08;;;1.00;;
20012;SDS011;10167;42.852;23.042;2023-12-22T02:17:58;0.28;;;0.28;;
20012;SDS011;10167;42.852;23.042;2023-12-22T02:20:52;0.93;;;0.93;;
20012;SDS011;10167;42.852;23.042;2023-12-22T02:23:24;2.53;;;1.15;;
20012;SDS011;10167;42.852;23.042;2023-12-22T02:25:56;3.95;;;1.35;;
20012;SDS011;10167;42.852;23.042;2023-12-22T02:28:33;0.77;;;0.73;;
20012;SDS011;10167;42.852;23.042;2023-12-22T02:31:08;0.38;;;0.38;;
20012;SDS011;10167;42.852;23.042;2023-12-22T02:33:42;2.70;;;1.30;;
20012;SDS011;10167;42.852;23.042;2023-12-22T02:36:13;1.10;;;0.90;;
20012;SDS011;10167;42.852;23.042;2023-12-22T02:38:46;0.85;;;0.80;;
20012;SDS011;10167;42.852;23.042;2023-12-22T02:41:17;1.50;;;1.05;;
20012;SDS011;10167;42.852;23.042;2023-12-22T02:43:46;1.27;;;0.82;;
20012;SDS011;10167;42.852;23.042;2023-12-22T02:46:15;1.70;;;1.15;;
20012;SDS011;10167;42.852;23.042;2023-12-22T02:48:45;1.65;;;0.57;;
20012;SDS011;10167;42.852;23.042;2023-12-22T02:51:15;0.77;;;0.57;;
20012;SDS011;10167;42.852;23.042;2023-12-22T02:53:46;0.32;;;0.32;;
20012;SDS011;10167;42.852;23.042;2023-12-22T02:56:16;2.30;;;2.00;;
20012;SDS011;10167;42.852;23.042;2023-12-22T02:58:45;1.38;;;1.00;;
20012;SDS011;10167;42.852;23.042;2023-12-22T03:01:15;1.88;;;1.25;;
20012;SDS011;10167;42.852;23.042;2023-12-22T03:03:45;5.72;;;0.93;;
20012;SDS011;10167;42.852;23.042;2023-12-22T03:06:15;0.75;;;0.75;;
20012;SDS011;10167;42.852;23.042;2023-12-22T03:08:47;0.68;;;0.60;;
20012;SDS011;10167;42.852;23.042;2023-12-22T03:11:16;0.85;;;0.75;;
20012;SDS011;10167;42.852;23.042;2023-12-22T03:13:46;0.60;;;0.60;;
20012;SDS011;10167;42.852;23.042;2023-12-22T03:16:15;0.47;;;0.35;;
20012;SDS011;10167;42.852;23.042;2023-12-22T03:18:44;1.23;;;1.10;;
20012;SDS011;10167;42.852;23.042;2023-12-22T03:21:16;0.65;;;0.65;;
20012;SDS011;10167;42.852;23.042;2023-12-22T03:23:48;2.85;;;1.60;;
20012;SDS011;10167;42.852;23.042;2023-12-22T03:26:20;1.77;;;1.67;;
20012;SDS011;10167;42.852;23.042;2023-12-22T03:28:50;0.55;;;0.55;;
20012;SDS011;10167;42.852;23.042;2023-12-22T03:31:19;2.55;;;0.77;;
20012;SDS011;10167;42.852;23.042;2023-12-22T03:33:49;1.25;;;1.02;;
20012;SDS011;10167;42.852;23.042;2023-12-22T03:36:20;0.65;;;0.65;;
20012;SDS011;10167;42.852;23.042;2023-12-22T03:38:51;0.47;;;0.35;;
20012;SDS011;10167;42.852;23.042;2023-12-22T03:41:21;1.20;;;0.90;;
20012;SDS011;10167;42.852;23.042;2023-12-22T03:43:51;1.73;;;1.25;;
20012;SDS011;10167;42.852;23.042;2023-12-22T03:46:21;2.42;;;0.70;;
20012;SDS011;10167;42.852;23.042;2023-12-22T03:48:51;1.85;;;1.75;;
20012;SDS011;10167;42.852;23.042;2023-12-22T03:51:21;0.90;;;0.90;;
20012;SDS011;10167;42.852;23.042;2023-12-22T03:53:53;3.17;;;1.27;;
20012;SDS011;10167;42.852;23.042;2023-12-22T03:56:23;1.42;;;0.98;;
20012;SDS011;10167;42.852;23.042;2023-12-22T03:58:52;4.47;;;1.25;;
20012;SDS011;10167;42.852;23.042;2023-12-22T04:01:22;2.17;;;1.27;;
20012;SDS011;10167;42.852;23.042;2023-12-22T04:03:51;0.77;;;0.77;;
20012;SDS011;10167;42.852;23.042;2023-12-22T04:06:22;2.10;;;1.25;;
20012;SDS011;10167;42.852;23.042;2023-12-22T04:08:53;0.82;;;0.82;;
20012;SDS011;10167;42.852;23.042;2023-12-22T04:11:23;1.85;;;1.48;;
20012;SDS011;10167;42.852;23.042;2023-12-22T04:13:54;0.52;;;0.52;;
20012;SDS011;10167;42.852;23.042;2023-12-22T04:16:23;0.68;;;0.68;;
20012;SDS011;10167;42.852;23.042;2023-12-22T04:18:53;1.60;;;0.88;;
20012;SDS011;10167;42.852;23.042;2023-12-22T04:21:23;1.70;;;1.35;;
20012;SDS011;10167;42.852;23.042;2023-12-22T04:23:54;0.68;;;0.68;;
20012;SDS011;10167;42.852;23.042;2023-12-22T04:26:23;0.80;;;0.80;;
20012;SDS011;10167;42.852;23.042;2023-12-22T04:28:54;2.42;;;0.95;;
20012;SDS011;10167;42.852;23.042;2023-12-22T04:31:23;1.75;;;0.73;;
20012;SDS011;10167;42.852;23.042;2023-12-22T04:33:53;2.30;;;1.48;;
20012;SDS011;10167;42.852;23.042;2023-12-22T04:36:23;0.70;;;0.70;;
20012;SDS011;10167;42.852;23.042;2023-12-22T04:38:55;1.88;;;1.48;;
20012;SDS011;10167;42.852;23.042;2023-12-22T04:41:24;2.40;;;1.33;;
20012;SDS011;10167;42.852;23.042;2023-12-22T04:43:54;4.25;;;2.30;;
20012;SDS011;10167;42.852;23.042;2023-12-22T04:46:24;2.90;;;2.70;;
20012;SDS011;10167;42.852;23.042;2023-12-22T04:48:54;7.22;;;1.63;;
20012;SDS011;10167;42.852;23.042;2023-12-22T04:51:26;2.42;;;1.90;;
20012;SDS011;10167;42.852;23.042;2023-12-22T04:53:57;8.02;;;3.53;;
20012;SDS011;10167;42.852;23.042;2023-12-22T04:56:27;7.90;;;5.47;;
20012;SDS011;10167;42.852;23.042;2023-12-22T04:58:57;5.95;;;4.32;;
20012;SDS011;10167;42.852;23.042;2023-12-22T05:01:27;5.13;;;3.33;;
20012;SDS011;10167;42.852;23.042;2023-12-22T05:03:57;2.47;;;1.30;;
20012;SDS011;10167;42.852;23.042;2023-12-22T05:06:27;3.38;;;2.22;;
20012;SDS011;10167;42.852;23.042;2023-12-22T05:08:59;2.30;;;1.70;;
20012;SDS011;10167;42.852;23.042;2023-12-22T05:11:30;3.30;;;1.38;;
20012;SDS011;10167;42.852;23.042;2023-12-22T05:14:00;1.33;;;1.15;;
20012;SDS011;10167;42.852;23.042;2023-12-22T05:16:30;12.48;;;8.82;;
20012;SDS011;10167;42.852;23.042;2023-12-22T05:19:01;37.97;;;26.40;;
20012;SDS011;10167;42.852;23.042;2023-12-22T05:21:31;50.80;;;30.88;;
20012;SDS011;10167;42.852;23.042;2023-12-22T05:24:03;30.50;;;21.38;;
20012;SDS011;10167;42.852;23.042;2023-12-22T05:26:33;15.35;;;5.47;;
20012;SDS011;10167;42.852;23.042;2023-12-22T05:29:03;5.90;;;4.20;;
20012;SDS011;10167;42.852;23.042;2023-12-22T05:31:36;6.32;;;3.42;;
20012;SDS011;10167;42.852;23.042;2023-12-22T05:34:07;6.80;;;2.03;;
20012;SDS011;10167;42.852;23.042;2023-12-22T05:36:38;8.32;;;5.97;;
20012;SDS011;10167;42.852;23.042;2023-12-22T05:39:09;14.65;;;7.00;;
20012;SDS011;10167;42.852;23.042;2023-12-22T05:41:40;6.68;;;4.15;;
20012;SDS011;10167;42.852;23.042;2023-12-22T05:44:09;2.90;;;2.70;;
20012;SDS011;10167;42.852;23.042;2023-12-22T05:46:39;21.77;;;5.40;;
20012;SDS011;10167;42.852;23.042;2023-12-22T05:49:09;8.98;;;6.70;;
20012;SDS011;10167;42.852;23.042;2023-12-22T05:51:38;6.65;;;4.20;;
20012;SDS011;10167;42.852;23.042;2023-12-22T05:54:11;19.75;;;6.30;;
20012;SDS011;10167;42.852;23.042;2023-12-22T05:56:41;5.28;;;3.40;;
20012;SDS011;10167;42.852;23.042;2023-12-22T05:59:12;6.47;;;5.30;;
20012;SDS011;10167;42.852;23.042;2023-12-22T06:01:44;12.93;;;5.93;;
20012;SDS011;10167;42.852;23.042;2023-12-22T06:04:14;5.20;;;4.20;;
20012;SDS011;10167;42.852;23.042;2023-12-22T06:06:44;14.60;;;4.93;;
20012;SDS011;10167;42.852;23.042;2023-12-22T06:09:15;6.32;;;4.72;;
20012;SDS011;10167;42.852;23.042;2023-12-22T06:11:45;9.77;;;3.58;;
20012;SDS011;10167;42.852;23.042;2023-12-22T06:14:15;4.60;;;2.30;;
20012;SDS011;10167;42.852;23.042;2023-12-22T06:16:45;5.82;;;3.30;;
20012;SDS011;10167;42.852;23.042;2023-12-22T06:19:14;6.00;;;4.68;;
20012;SDS011;10167;42.852;23.042;2023-12-22T06:21:45;2.95;;;2.65;;
20012;SDS011;10167;42.852;23.042;2023-12-22T06:24:16;2.05;;;1.65;;
20012;SDS011;10167;42.852;23.042;2023-12-22T06:26:46;2.83;;;2.63;;
20012;SDS011;10167;42.852;23.042;2023-12-22T06:29:16;3.58;;;3.25;;
20012;SDS011;10167;42.852;23.042;2023-12-22T06:31:45;2.45;;;2.15;;
20012;SDS011;10167;42.852;23.042;2023-12-22T06:34:18;2.20;;;1.27;;
20012;SDS011;10167;42.852;23.042;2023-12-22T06:36:48;2.28;;;2.08;;
20012;SDS011;10167;42.852;23.042;2023-12-22T06:39:20;1.80;;;1.70;;
20012;SDS011;10167;42.852;23.042;2023-12-22T06:41:50;3.30;;;2.40;;
20012;SDS011;10167;42.852;23.042;2023-12-22T06:44:20;4.28;;;3.47;;
20012;SDS011;10167;42.852;23.042;2023-12-22T06:46:49;3.97;;;3.58;;
20012;SDS011;10167;42.852;23.042;2023-12-22T06:49:20;3.70;;;2.05;;
20012;SDS011;10167;42.852;23.042;2023-12-22T06:51:50;3.33;;;2.97;;
20012;SDS011;10167;42.852;23.042;2023-12-22T06:54:21;10.75;;;4.72;;
20012;SDS011;10167;42.852;23.042;2023-12-22T06:56:51;7.63;;;5.07;;
20012;SDS011;10167;42.852;23.042;2023-12-22T06:59:21;6.07;;;5.25;;
20012;SDS011;10167;42.852;23.042;2023-12-22T07:01:52;13.43;;;5.00;;
20012;SDS011;10167;42.852;23.042;2023-12-22T07:04:39;3.67;;;2.67;;
20012;SDS011;10167;42.852;23.042;2023-12-22T07:07:31;3.75;;;3.45;;
20012;SDS011;10167;42.852;23.042;2023-12-22T07:10:05;14.90;;;3.45;;
20012;SDS011;10167;42.852;23.042;2023-12-22T07:12:35;8.90;;;5.55;;
20012;SDS011;10167;42.852;23.042;2023-12-22T07:15:04;9.50;;;7.55;;
20012;SDS011;10167;42.852;23.042;2023-12-22T07:17:37;11.98;;;6.25;;
20012;SDS011;10167;42.852;23.042;2023-12-22T07:20:07;14.18;;;7.75;;
20012;SDS011;10167;42.852;23.042;2023-12-22T07:22:37;9.18;;;5.90;;
20012;SDS011;10167;42.852;23.042;2023-12-22T07:25:09;5.47;;;4.10;;
20012;SDS011;10167;42.852;23.042;2023-12-22T07:30:10;4.53;;;2.67;;
20012;SDS011;10167;42.852;23.042;2023-12-22T07:32:44;3.53;;;3.22;;
20012;SDS011;10167;42.852;23.042;2023-12-22T07:35:16;3.78;;;3.03;;
20012;SDS011;10167;42.852;23.042;2023-12-22T07:37:46;3.10;;;2.03;;
20012;SDS011;10167;42.852;23.042;2023-12-22T07:40:18;11.75;;;3.20;;
20012;SDS011;10167;42.852;23.042;2023-12-22T07:42:48;4.05;;;3.30;;
20012;SDS011;10167;42.852;23.042;2023-12-22T07:45:18;5.05;;;4.50;;
20012;SDS011;10167;42.852;23.042;2023-12-22T07:47:48;2.75;;;2.55;;
20012;SDS011;10167;42.852;23.042;2023-12-22T07:50:19;7.28;;;2.45;;
20012;SDS011;10167;42.852;23.042;2023-12-22T07:52:49;7.80;;;4.30;;
20012;SDS011;10167;42.852;23.042;2023-12-22T07:55:20;2.05;;;1.88;;
20012;SDS011;10167;42.852;23.042;2023-12-22T07:57:50;2.53;;;1.52;;
20012;SDS011;10167;42.852;23.042;2023-12-22T08:00:20;6.85;;;2.83;;
20012;SDS011;10167;42.852;23.042;2023-12-22T08:02:50;1.15;;;1.10;;
20012;SDS011;10167;42.852;23.042;2023-12-22T08:05:20;1.45;;;1.35;;
20012;SDS011;10167;42.852;23.042;2023-12-22T08:07:50;4.78;;;2.85;;
20012;SDS011;10167;42.852;23.042;2023-12-22T08:10:22;6.00;;;2.90;;
20012;SDS011;10167;42.852;23.042;2023-12-22T08:12:52;6.57;;;4.65;;
20012;SDS011;10167;42.852;23.042;2023-12-22T08:15:21;3.78;;;3.25;;
20012;SDS011;10167;42.852;23.042;2023-12-22T08:18:02;6.93;;;3.25;;
20012;SDS011;10167;42.852;23.042;2023-12-22T08:20:33;6.30;;;4.90;;
20012;SDS011;10167;42.852;23.042;2023-12-22T08:23:08;3.65;;;3.28;;
20012;SDS011;10167;42.852;23.042;2023-12-22T08:25:42;10.90;;;4.95;;
20012;SDS011;10167;42.852;23.042;2023-12-22T08:28:13;5.95;;;3.03;;
20012;SDS011;10167;42.852;23.042;2023-12-22T08:30:42;3.47;;;2.40;;
20012;SDS011;10167;42.852;23.042;2023-12-22T08:33:13;6.43;;;2.42;;
20012;SDS011;10167;42.852;23.042;2023-12-22T08:35:42;2.60;;;2.40;;
20012;SDS011;10167;42.852;23.042;2023-12-22T08:38:12;13.85;;;4.45;;
20012;SDS011;10167;42.852;23.042;2023-12-22T08:40:44;8.48;;;3.88;;
20012;SDS011;10167;42.852;23.042;2023-12-22T08:43:14;3.17;;;2.38;;
20012;SDS011;10167;42.852;23.042;2023-12-22T08:45:43;2.72;;;2.53;;
20012;SDS011;10167;42.852;23.042;2023-12-22T08:48:13;5.60;;;2.35;;
20012;SDS011;10167;42.852;23.042;2023-12-22T08:50:43;1.48;;;1.35;;
20012;SDS011;10167;42.852;23.042;2023-12-22T08:53:13;2.95;;;2.15;;
20012;SDS011;10167;42.852;23.042;2023-12-22T08:55:45;2.75;;;1.60;;
20012;SDS011;10167;42.852;23.042;2023-12-22T08:58:20;5.47;;;2.63;;
20012;SDS011;10167;42.852;23.042;2023-12-22T09:00:49;2.72;;;2.53;;
20012;SDS011;10167;42.852;23.042;2023-12-22T09:03:20;1.42;;;1.33;;
20012;SDS011;10167;42.852;23.042;2023-12-22T09:05:51;3.53;;;3.22;;
20012;SDS011;10167;42.852;23.042;2023-12-22T09:08:20;0.93;;;0.93;;
20012;SDS011;10167;42.852;23.042;2023-12-22T09:10:51;1.95;;;1.85;;
20012;SDS011;10167;42.852;23.042;2023-12-22T09:13:22;6.13;;;2.87;;
20012;SDS011;10167;42.852;23.042;2023-12-22T09:15:52;3.38;;;2.78;;
20012;SDS011;10167;42.852;23.042;2023-12-22T09:18:22;1.92;;;1.83;;
20012;SDS011;10167;42.852;23.042;2023-12-22T09:20:51;3.83;;;2.22;;
20012;SDS011;10167;42.852;23.042;2023-12-22T09:23:21;10.18;;;2.15;;
20012;SDS011;10167;42.852;23.042;2023-12-22T09:25:53;4.28;;;2.78;;
20012;SDS011;10167;42.852;23.042;2023-12-22T09:28:23;4.05;;;3.65;;
20012;SDS011;10167;42.852;23.042;2023-12-22T09:30:56;3.50;;;3.20;;
20012;SDS011;10167;42.852;23.042;2023-12-22T09:33:26;5.47;;;1.85;;
20012;SDS011;10167;42.852;23.042;2023-12-22T09:35:55;2.08;;;1.10;;
20012;SDS011;10167;42.852;23.042;2023-12-22T09:38:25;1.45;;;1.20;;
20012;SDS011;10167;42.852;23.042;2023-12-22T09:40:56;1.15;;;1.10;;
20012;SDS011;10167;42.852;23.042;2023-12-22T09:43:26;1.73;;;1.50;;
20012;SDS011;10167;42.852;23.042;2023-12-22T09:45:57;0.43;;;0.43;;
20012;SDS011;10167;42.852;23.042;2023-12-22T09:48:28;2.67;;;2.47;;
20012;SDS011;10167;42.852;23.042;2023-12-22T09:50:59;2.22;;;1.17;;
20012;SDS011;10167;42.852;23.042;2023-12-22T09:53:32;2.83;;;1.17;;
20012;SDS011;10167;42.852;23.042;2023-12-22T09:56:06;3.38;;;2.20;;
20012;SDS011;10167;42.852;23.042;2023-12-22T10:01:07;6.78;;;5.22;;
20012;SDS011;10167;42.852;23.042;2023-12-22T10:03:38;13.73;;;4.72;;
20012;SDS011;10167;42.852;23.042;2023-12-22T10:06:14;3.92;;;2.38;;
20012;SDS011;10167;42.852;23.042;2023-12-22T10:08:44;1.60;;;1.50;;
20012;SDS011;10167;42.852;23.042;2023-12-22T10:11:20;6.20;;;2.75;;
20012;SDS011;10167;42.852;23.042;2023-12-22T10:13:51;2.45;;;1.77;;
20012;SDS011;10167;42.852;23.042;2023-12-22T10:16:23;1.17;;;1.08;;
20012;SDS011;10167;42.852;23.042;2023-12-22T10:18:53;0.75;;;0.73;;
20012;SDS011;10167;42.852;23.042;2023-12-22T10:21:23;1.50;;;1.40;;
20012;SDS011;10167;42.852;23.042;2023-12-22T10:23:52;1.85;;;1.50;;
20012;SDS011;10167;42.852;23.042;2023-12-22T10:26:23;1.45;;;1.20;;
20012;SDS011;10167;42.852;23.042;2023-12-22T10:28:53;2.60;;;2.15;;
20012;SDS011;10167;42.852;23.042;2023-12-22T10:31:24;8.55;;;2.75;;
20012;SDS011;10167;42.852;23.042;2023-12-22T10:33:53;2.08;;;1.33;;
20012;SDS011;10167;42.852;23.042;2023-12-22T10:36:23;2.25;;;1.17;;
20012;SDS011;10167;42.852;23.042;2023-12-22T10:38:53;0.55;;;0.55;;
20012;SDS011;10167;42.852;23.042;2023-12-22T10:41:24;0.40;;;0.40;;
20012;SDS011;10167;42.852;23.042;2023-12-22T10:43:54;0.80;;;0.80;;
20012;SDS011;10167;42.852;23.042;2023-12-22T10:46:24;0.45;;;0.40;;
20012;SDS011;10167;42.852;23.042;2023-12-22T10:48:55;0.10;;;0.10;;
20012;SDS011;10167;42.852;23.042;2023-12-22T10:51:25;0.50;;;0.50;;
20012;SDS011;10167;42.852;23.042;2023-12-22T10:53:59;0.52;;;0.52;;
20012;SDS011;10167;42.852;23.042;2023-12-22T10:56:31;0.70;;;0.70;;
20012;SDS011;10167;42.852;23.042;2023-12-22T10:59:01;0.35;;;0.35;;
20012;SDS011;10167;42.852;23.042;2023-12-22T11:01:32;1.10;;;1.00;;
20012;SDS011;10167;42.852;23.042;2023-12-22T11:04:07;1.58;;;1.48;;
20012;SDS011;10167;42.852;23.042;2023-12-22T11:06:37;1.38;;;0.68;;
20012;SDS011;10167;42.852;23.042;2023-12-22T11:09:10;0.95;;;0.90;;
20012;SDS011;10167;42.852;23.042;2023-12-22T11:11:42;2.03;;;1.90;;
20012;SDS011;10167;42.852;23.042;2023-12-22T11:14:14;0.73;;;0.65;;
20012;SDS011;10167;42.852;23.042;2023-12-22T11:16:45;1.85;;;0.90;;
20012;SDS011;10167;42.852;23.042;2023-12-22T11:19:16;0.73;;;0.60;;
20012;SDS011;10167;42.852;23.042;2023-12-22T11:21:48;0.20;;;0.20;;
20012;SDS011;10167;42.852;23.042;2023-12-22T11:24:20;0.43;;;0.43;;
20012;SDS011;10167;42.852;23.042;2023-12-22T11:26:52;0.55;;;0.55;;
20012;SDS011;10167;42.852;23.042;2023-12-22T11:29:24;1.30;;;0.82;;
20012;SDS011;10167;42.852;23.042;2023-12-22T11:31:55;0.40;;;0.38;;
20012;SDS011;10167;42.852;23.042;2023-12-22T11:34:29;0.30;;;0.30;;
20012;SDS011;10167;42.852;23.042;2023-12-22T11:37:01;0.85;;;0.82;;
20012;SDS011;10167;42.852;23.042;2023-12-22T11:39:34;4.70;;;1.50;;
20012;SDS011;10167;42.852;23.042;2023-12-22T11:42:05;2.00;;;1.38;;
20012;SDS011;10167;42.852;23.042;2023-12-22T11:44:37;2.90;;;1.95;;
20012;SDS011;10167;42.852;23.042;2023-12-22T11:47:08;0.80;;;0.80;;
20012;SDS011;10167;42.852;23.042;2023-12-22T11:49:41;0.68;;;0.68;;
20012;SDS011;10167;42.852;23.042;2023-12-22T11:52:11;0.73;;;0.63;;
20012;SDS011;10167;42.852;23.042;2023-12-22T11:54:48;0.93;;;0.68;;
20012;SDS011;10167;42.852;23.042;2023-12-22T11:57:36;2.20;;;0.98;;
20012;SDS011;10167;42.852;23.042;2023-12-22T12:00:07;2.00;;;1.77;;
20012;SDS011;10167;42.852;23.042;2023-12-22T12:02:41;2.00;;;1.80;;
20012;SDS011;10167;42.852;23.042;2023-12-22T12:05:12;6.40;;;1.55;;
20012;SDS011;10167;42.852;23.042;2023-12-22T12:07:45;4.38;;;1.85;;
20012;SDS011;10167;42.852;23.042;2023-12-22T12:13:23;1.48;;;1.13;;
20012;SDS011;10167;42.852;23.042;2023-12-22T12:15:55;1.13;;;0.85;;
20012;SDS011;10167;42.852;23.042;2023-12-22T12:18:27;0.55;;;0.55;;
20012;SDS011;10167;42.852;23.042;2023-12-22T12:20:58;0.93;;;0.93;;
20012;SDS011;10167;42.852;23.042;2023-12-22T12:23:27;0.50;;;0.50;;
20012;SDS011;10167;42.852;23.042;2023-12-22T12:25:57;0.77;;;0.77;;
20012;SDS011;10167;42.852;23.042;2023-12-22T12:28:30;0.45;;;0.45;;
20012;SDS011;10167;42.852;23.042;2023-12-22T12:31:02;0.43;;;0.43;;
20012;SDS011;10167;42.852;23.042;2023-12-22T12:33:35;0.52;;;0.52;;
20012;SDS011;10167;42.852;23.042;2023-12-22T12:36:05;2.80;;;1.17;;
20012;SDS011;10167;42.852;23.042;2023-12-22T12:38:36;1.20;;;0.88;;
20012;SDS011;10167;42.852;23.042;2023-12-22T12:41:14;0.98;;;0.95;;
20012;SDS011;10167;42.852;23.042;2023-12-22T12:43:46;4.43;;;2.65;;
20012;SDS011;10167;42.852;23.042;2023-12-22T12:46:17;3.72;;;1.98;;
20012;SDS011;10167;42.852;23.042;2023-12-22T12:48:47;1.77;;;1.67;;
20012;SDS011;10167;42.852;23.042;2023-12-22T12:51:18;3.63;;;2.08;;
20012;SDS011;10167;42.852;23.042;2023-12-22T12:53:47;1.98;;;1.77;;
20012;SDS011;10167;42.852;23.042;2023-12-22T12:56:16;3.33;;;2.05;;
20012;SDS011;10167;42.852;23.042;2023-12-22T12:58:48;3.38;;;2.05;;
20012;SDS011;10167;42.852;23.042;2023-12-22T13:01:18;1.63;;;1.38;;
20012;SDS011;10167;42.852;23.042;2023-12-22T13:03:55;3.45;;;1.85;;
20012;SDS011;10167;42.852;23.042;2023-12-22T13:06:26;5.93;;;3.35;;
20012;SDS011;10167;42.852;23.042;2023-12-22T13:08:56;8.15;;;3.53;;
20012;SDS011;10167;42.852;23.042;2023-12-22T13:11:26;4.68;;;2.72;;
20012;SDS011;10167;42.852;23.042;2023-12-22T13:14:00;1.30;;;1.23;;
20012;SDS011;10167;42.852;23.042;2023-12-22T13:16:30;0.70;;;0.70;;
20012;SDS011;10167;42.852;23.042;2023-12-22T13:19:00;1.98;;;1.77;;
20012;SDS011;10167;42.852;23.042;2023-12-22T13:21:30;4.13;;;2.38;;
20012;SDS011;10167;42.852;23.042;2023-12-22T13:24:10;5.57;;;4.55;;
20012;SDS011;10167;42.852;23.042;2023-12-22T13:26:41;3.63;;;2.70;;
20012;SDS011;10167;42.852;23.042;2023-12-22T13:29:13;5.40;;;2.42;;
20012;SDS011;10167;42.852;23.042;2023-12-22T13:31:42;3.78;;;3.25;;
20012;SDS011;10167;42.852;23.042;2023-12-22T13:34:13;6.78;;;3.25;;
20012;SDS011;10167;42.852;23.042;2023-12-22T13:36:43;2.90;;;2.40;;
20012;SDS011;10167;42.852;23.042;2023-12-22T13:39:12;2.70;;;1.50;;
20012;SDS011;10167;42.852;23.042;2023-12-22T13:41:45;5.07;;;2.20;;
20012;SDS011;10167;42.852;23.042;2023-12-22T13:44:17;1.60;;;1.50;;
20012;SDS011;10167;42.852;23.042;2023-12-22T13:46:47;2.03;;;1.80;;
20012;SDS011;10167;42.852;23.042;2023-12-22T13:49:18;1.63;;;1.25;;
20012;SDS011;10167;42.852;23.042;2023-12-22T13:51:49;2.47;;;1.65;;
20012;SDS011;10167;42.852;23.042;2023-12-22T13:54:18;5.97;;;2.75;;
20012;SDS011;10167;42.852;23.042;2023-12-22T13:56:48;1.10;;;1.10;;
20012;SDS011;10167;42.852;23.042;2023-12-22T13:59:31;2.20;;;1.25;;
20012;SDS011;10167;42.852;23.042;2023-12-22T14:02:01;3.63;;;0.93;;
20012;SDS011;10167;42.852;23.042;2023-12-22T14:04:32;0.73;;;0.73;;
20012;SDS011;10167;42.852;23.042;2023-12-22T14:07:02;0.38;;;0.38;;
20012;SDS011;10167;42.852;23.042;2023-12-22T14:09:32;0.50;;;0.50;;
20012;SDS011;10167;42.852;23.042;2023-12-22T14:12:01;3.38;;;0.70;;
20012;SDS011;10167;42.852;23.042;2023-12-22T14:14:38;1.67;;;1.15;;
20012;SDS011;10167;42.852;23.042;2023-12-22T14:17:08;2.38;;;1.20;;
20012;SDS011;10167;42.852;23.042;2023-12-22T14:19:38;1.80;;;1.70;;
20012;SDS011;10167;42.852;23.042;2023-12-22T14:22:07;5.75;;;2.42;;
20012;SDS011;10167;42.852;23.042;2023-12-22T14:24:37;7.10;;;3.65;;
20012;SDS011;10167;42.852;23.042;2023-12-22T14:27:07;1.75;;;1.55;;
20012;SDS011;10167;42.852;23.042;2023-12-22T14:29:38;2.30;;;1.98;;
20012;SDS011;10167;42.852;23.042;2023-12-22T14:32:09;3.55;;;2.97;;
20012;SDS011;10167;42.852;23.042;2023-12-22T14:34:40;3.42;;;2.67;;
20012;SDS011;10167;42.852;23.042;2023-12-22T14:37:10;3.55;;;2.47;;
20012;SDS011;10167;42.852;23.042;2023-12-22T14:39:39;4.50;;;2.97;;
20012;SDS011;10167;42.852;23.042;2023-12-22T14:42:12;6.55;;;3.20;;
20012;SDS011;10167;42.852;23.042;2023-12-22T14:44:43;7.47;;;5.40;;
20012;SDS011;10167;42.852;23.042;2023-12-22T14:47:13;11.30;;;5.47;;
20012;SDS011;10167;42.852;23.042;2023-12-22T14:49:43;7.43;;;3.65;;
20012;SDS011;10167;42.852;23.042;2023-12-22T14:52:13;4.75;;;4.22;;
20012;SDS011;10167;42.852;23.042;2023-12-22T14:54:42;10.65;;;5.45;;
20012;SDS011;10167;42.852;23.042;2023-12-22T14:57:13;5.57;;;3.75;;
20012;SDS011;10167;42.852;23.042;2023-12-22T14:59:47;8.10;;;5.17;;
20012;SDS011;10167;42.852;23.042;2023-12-22T15:02:18;15.57;;;9.82;;